sensor_id;sensor_type;location;lat;lon;timestamp;P1;durP1;ratioP1;P2;durP2;ratioP2
4521;SDS011;2273;48.464;11.926;2023-06-22T00:01:15;15.67;;;7.73;;
4521;SDS011;2273;48.464;11.926;2023-06-22T00:03:40;14.03;;;8.03;;
4521;SDS011;2273;48.464;11.926;2023-06-22T00:06:06;17.97;;;7.13;;
4521;SDS011;2273;48.464;11.926;2023-06-22T00:08:31;14.30;;;8.10;;
4521;SDS011;2273;48.464;11.926;2023-06-22T00:10:57;11.73;;;7.13;;
4521;SDS011;2273;48.464;11.926;2023-06-22T00:13:22;13.20;;;7.73;;
4521;SDS011;2273;48.464;11.926;2023-06-22T00:15:48;14.93;;;7.30;;
4521;SDS011;2273;48.464;11.926;2023-06-22T00:18:13;14.13;;;7.60;;
4521;SDS011;2273;48.464;11.926;2023-06-22T00:20:38;12.40;;;6.77;;
4521;SDS011;2273;48.464;11.926;2023-06-22T00:23:05;11.83;;;7.57;;
4521;SDS011;2273;48.464;11.926;2023-06-22T00:25:36;13.20;;;7.00;;
4521;SDS011;2273;48.464;11.926;2023-06-22T00:28:03;13.90;;;7.60;;
4521;SDS011;2273;48.464;11.926;2023-06-22T00:30:29;16.30;;;7.60;;
4521;SDS011;2273;48.464;11.926;2023-06-22T00:32:56;15.57;;;7.57;;
4521;SDS011;2273;48.464;11.926;2023-06-22T00:35:22;23.80;;;7.30;;
4521;SDS011;2273;48.464;11.926;2023-06-22T00:37:47;16.20;;;7.07;;
4521;SDS011;2273;48.464;11.926;2023-06-22T00:40:13;16.27;;;7.63;;
4521;SDS011;2273;48.464;11.926;2023-06-22T00:42:39;12.63;;;7.70;;
4521;SDS011;2273;48.464;11.926;2023-06-22T00:45:07;28.87;;;7.07;;
4521;SDS011;2273;48.464;11.926;2023-06-22T00:47:35;18.67;;;7.30;;
4521;SDS011;2273;48.464;11.926;2023-06-22T00:50:03;14.37;;;7.50;;
4521;SDS011;2273;48.464;11.926;2023-06-22T00:52:30;17.37;;;7.10;;
4521;SDS011;2273;48.464;11.926;2023-06-22T00:54:58;14.57;;;7.60;;
4521;SDS011;2273;48.464;11.926;2023-06-22T00:57:26;18.67;;;8.63;;
4521;SDS011;2273;48.464;11.926;2023-06-22T00:59:54;16.87;;;7.43;;
4521;SDS011;2273;48.464;11.926;2023-06-22T01:02:20;12.23;;;6.47;;
4521;SDS011;2273;48.464;11.926;2023-06-22T01:04:45;13.00;;;7.37;;
4521;SDS011;2273;48.464;11.926;2023-06-22T01:12:34;12.97;;;6.00;;
4521;SDS011;2273;48.464;11.926;2023-06-22T01:17:30;13.30;;;6.80;;
4521;SDS011;2273;48.464;11.926;2023-06-22T01:19:56;23.27;;;7.30;;
4521;SDS011;2273;48.464;11.926;2023-06-22T01:22:23;10.10;;;6.17;;
4521;SDS011;2273;48.464;11.926;2023-06-22T01:24:55;10.60;;;6.47;;
4521;SDS011;2273;48.464;11.926;2023-06-22T01:27:39;12.60;;;6.37;;
4521;SDS011;2273;48.464;11.926;2023-06-22T01:30:13;13.37;;;7.50;;
4521;SDS011;2273;48.464;11.926;2023-06-22T01:32:39;14.73;;;7.13;;
4521;SDS011;2273;48.464;11.926;2023-06-22T01:35:06;15.00;;;7.10;;
4521;SDS011;2273;48.464;11.926;2023-06-22T01:37:33;11.20;;;6.50;;
4521;SDS011;2273;48.464;11.926;2023-06-22T01:39:59;11.90;;;6.33;;
4521;SDS011;2273;48.464;11.926;2023-06-22T01:42:25;12.03;;;6.27;;
4521;SDS011;2273;48.464;11.926;2023-06-22T01:44:54;13.13;;;5.93;;
4521;SDS011;2273;48.464;11.926;2023-06-22T01:47:21;10.73;;;6.47;;
4521;SDS011;2273;48.464;11.926;2023-06-22T01:49:47;13.60;;;7.47;;
4521;SDS011;2273;48.464;11.926;2023-06-22T01:52:13;13.70;;;7.67;;
4521;SDS011;2273;48.464;11.926;2023-06-22T01:54:39;16.00;;;7.60;;
4521;SDS011;2273;48.464;11.926;2023-06-22T01:57:05;13.40;;;7.60;;
4521;SDS011;2273;48.464;11.926;2023-06-22T02:02:01;14.67;;;8.13;;
4521;SDS011;2273;48.464;11.926;2023-06-22T02:04:36;16.50;;;7.10;;
4521;SDS011;2273;48.464;11.926;2023-06-22T02:07:05;11.50;;;6.57;;
4521;SDS011;2273;48.464;11.926;2023-06-22T02:09:32;17.80;;;8.80;;
4521;SDS011;2273;48.464;11.926;2023-06-22T02:12:00;13.50;;;7.20;;
4521;SDS011;2273;48.464;11.926;2023-06-22T02:14:27;17.30;;;8.00;;
4521;SDS011;2273;48.464;11.926;2023-06-22T02:16:53;13.97;;;7.30;;
4521;SDS011;2273;48.464;11.926;2023-06-22T02:19:22;13.57;;;8.00;;
4521;SDS011;2273;48.464;11.926;2023-06-22T02:21:48;14.83;;;7.57;;
4521;SDS011;2273;48.464;11.926;2023-06-22T02:24:14;12.30;;;7.50;;
4521;SDS011;2273;48.464;11.926;2023-06-22T02:26:39;15.43;;;8.50;;
4521;SDS011;2273;48.464;11.926;2023-06-22T02:29:07;19.63;;;6.73;;
4521;SDS011;2273;48.464;11.926;2023-06-22T02:31:33;22.40;;;9.70;;
4521;SDS011;2273;48.464;11.926;2023-06-22T02:33:59;12.00;;;7.67;;
4521;SDS011;2273;48.464;11.926;2023-06-22T02:36:24;20.27;;;9.10;;
4521;SDS011;2273;48.464;11.926;2023-06-22T02:38:51;18.80;;;9.10;;
4521;SDS011;2273;48.464;11.926;2023-06-22T02:41:17;14.00;;;8.00;;
4521;SDS011;2273;48.464;11.926;2023-06-22T02:43:46;21.20;;;8.70;;
4521;SDS011;2273;48.464;11.926;2023-06-22T02:46:12;14.80;;;8.60;;
4521;SDS011;2273;48.464;11.926;2023-06-22T02:48:40;17.00;;;9.20;;
4521;SDS011;2273;48.464;11.926;2023-06-22T02:51:06;19.60;;;9.87;;
4521;SDS011;2273;48.464;11.926;2023-06-22T02:53:33;17.00;;;10.90;;
4521;SDS011;2273;48.464;11.926;2023-06-22T02:55:59;16.37;;;9.00;;
4521;SDS011;2273;48.464;11.926;2023-06-22T02:58:28;22.33;;;10.03;;
4521;SDS011;2273;48.464;11.926;2023-06-22T03:00:54;15.03;;;7.90;;
4521;SDS011;2273;48.464;11.926;2023-06-22T03:03:19;20.10;;;9.40;;
4521;SDS011;2273;48.464;11.926;2023-06-22T03:05:45;21.53;;;8.50;;
4521;SDS011;2273;48.464;11.926;2023-06-22T03:08:11;17.07;;;9.70;;
4521;SDS011;2273;48.464;11.926;2023-06-22T03:10:36;20.10;;;9.70;;
4521;SDS011;2273;48.464;11.926;2023-06-22T03:13:02;16.60;;;8.80;;
4521;SDS011;2273;48.464;11.926;2023-06-22T03:15:29;22.20;;;9.83;;
4521;SDS011;2273;48.464;11.926;2023-06-22T03:17:56;20.13;;;10.07;;
4521;SDS011;2273;48.464;11.926;2023-06-22T03:20:23;16.97;;;8.67;;
4521;SDS011;2273;48.464;11.926;2023-06-22T03:22:48;22.77;;;9.80;;
4521;SDS011;2273;48.464;11.926;2023-06-22T03:25:14;18.27;;;9.80;;
4521;SDS011;2273;48.464;11.926;2023-06-22T03:27:42;20.90;;;10.43;;
4521;SDS011;2273;48.464;11.926;2023-06-22T03:30:09;14.47;;;8.70;;
4521;SDS011;2273;48.464;11.926;2023-06-22T03:32:35;21.77;;;11.07;;
4521;SDS011;2273;48.464;11.926;2023-06-22T03:35:01;31.80;;;10.27;;
4521;SDS011;2273;48.464;11.926;2023-06-22T03:37:27;25.73;;;11.73;;
4521;SDS011;2273;48.464;11.926;2023-06-22T03:39:54;17.43;;;9.40;;
4521;SDS011;2273;48.464;11.926;2023-06-22T03:42:19;25.33;;;11.80;;
4521;SDS011;2273;48.464;11.926;2023-06-22T03:44:45;21.60;;;10.60;;
4521;SDS011;2273;48.464;11.926;2023-06-22T03:47:11;26.73;;;10.33;;
4521;SDS011;2273;48.464;11.926;2023-06-22T03:49:36;16.77;;;9.70;;
4521;SDS011;2273;48.464;11.926;2023-06-22T03:52:02;16.77;;;9.93;;
4521;SDS011;2273;48.464;11.926;2023-06-22T03:54:28;16.40;;;10.13;;
4521;SDS011;2273;48.464;11.926;2023-06-22T03:56:55;17.47;;;10.40;;
4521;SDS011;2273;48.464;11.926;2023-06-22T03:59:22;29.60;;;11.30;;
4521;SDS011;2273;48.464;11.926;2023-06-22T04:01:47;19.63;;;11.23;;
4521;SDS011;2273;48.464;11.926;2023-06-22T04:04:13;25.40;;;10.70;;
4521;SDS011;2273;48.464;11.926;2023-06-22T04:06:38;16.90;;;11.43;;
4521;SDS011;2273;48.464;11.926;2023-06-22T04:09:05;25.00;;;12.70;;
4521;SDS011;2273;48.464;11.926;2023-06-22T04:11:31;16.70;;;10.53;;
4521;SDS011;2273;48.464;11.926;2023-06-22T04:13:56;22.93;;;12.93;;
4521;SDS011;2273;48.464;11.926;2023-06-22T04:16:21;21.53;;;11.97;;
4521;SDS011;2273;48.464;11.926;2023-06-22T04:18:47;22.67;;;12.93;;
4521;SDS011;2273;48.464;11.926;2023-06-22T04:21:13;18.40;;;11.00;;
4521;SDS011;2273;48.464;11.926;2023-06-22T04:23:38;19.03;;;11.97;;
4521;SDS011;2273;48.464;11.926;2023-06-22T04:26:03;25.00;;;12.53;;
4521;SDS011;2273;48.464;11.926;2023-06-22T04:28:29;21.27;;;12.30;;
4521;SDS011;2273;48.464;11.926;2023-06-22T04:30:54;24.10;;;12.50;;
4521;SDS011;2273;48.464;11.926;2023-06-22T04:33:27;23.90;;;12.43;;
4521;SDS011;2273;48.464;11.926;2023-06-22T04:35:54;18.00;;;11.60;;
4521;SDS011;2273;48.464;11.926;2023-06-22T04:38:22;24.50;;;13.20;;
4521;SDS011;2273;48.464;11.926;2023-06-22T04:40:48;23.40;;;12.13;;
4521;SDS011;2273;48.464;11.926;2023-06-22T04:43:14;19.53;;;12.33;;
4521;SDS011;2273;48.464;11.926;2023-06-22T04:45:39;17.63;;;11.40;;
4521;SDS011;2273;48.464;11.926;2023-06-22T04:48:05;22.30;;;11.70;;
4521;SDS011;2273;48.464;11.926;2023-06-22T04:50:30;26.40;;;12.13;;
4521;SDS011;2273;48.464;11.926;2023-06-22T04:52:56;30.73;;;11.10;;
4521;SDS011;2273;48.464;11.926;2023-06-22T04:55:21;18.00;;;11.07;;
4521;SDS011;2273;48.464;11.926;2023-06-22T04:57:48;22.50;;;11.93;;
4521;SDS011;2273;48.464;11.926;2023-06-22T05:00:16;25.10;;;11.83;;
4521;SDS011;2273;48.464;11.926;2023-06-22T05:02:43;22.60;;;11.40;;
4521;SDS011;2273;48.464;11.926;2023-06-22T05:05:10;21.77;;;11.40;;
4521;SDS011;2273;48.464;11.926;2023-06-22T05:07:47;26.67;;;10.67;;
4521;SDS011;2273;48.464;11.926;2023-06-22T05:10:15;18.00;;;10.40;;
4521;SDS011;2273;48.464;11.926;2023-06-22T05:12:41;26.90;;;10.77;;
4521;SDS011;2273;48.464;11.926;2023-06-22T05:15:07;24.13;;;10.03;;
4521;SDS011;2273;48.464;11.926;2023-06-22T05:17:33;16.53;;;10.40;;
4521;SDS011;2273;48.464;11.926;2023-06-22T05:19:59;23.63;;;10.20;;
4521;SDS011;2273;48.464;11.926;2023-06-22T05:22:25;23.53;;;10.07;;
4521;SDS011;2273;48.464;11.926;2023-06-22T05:24:50;23.53;;;10.97;;
4521;SDS011;2273;48.464;11.926;2023-06-22T05:27:16;21.63;;;9.67;;
4521;SDS011;2273;48.464;11.926;2023-06-22T05:29:41;16.83;;;10.03;;
4521;SDS011;2273;48.464;11.926;2023-06-22T05:32:10;16.37;;;9.03;;
4521;SDS011;2273;48.464;11.926;2023-06-22T05:34:35;15.77;;;8.93;;
4521;SDS011;2273;48.464;11.926;2023-06-22T05:37:01;16.97;;;8.97;;
4521;SDS011;2273;48.464;11.926;2023-06-22T05:39:27;18.60;;;9.23;;
4521;SDS011;2273;48.464;11.926;2023-06-22T05:41:52;16.20;;;7.97;;
4521;SDS011;2273;48.464;11.926;2023-06-22T05:44:18;15.67;;;8.80;;
4521;SDS011;2273;48.464;11.926;2023-06-22T05:46:44;14.97;;;9.03;;
4521;SDS011;2273;48.464;11.926;2023-06-22T05:49:11;20.17;;;9.00;;
4521;SDS011;2273;48.464;11.926;2023-06-22T05:51:40;16.80;;;8.30;;
4521;SDS011;2273;48.464;11.926;2023-06-22T05:54:06;25.43;;;9.03;;
4521;SDS011;2273;48.464;11.926;2023-06-22T05:56:33;21.07;;;8.80;;
4521;SDS011;2273;48.464;11.926;2023-06-22T05:58:58;19.67;;;7.93;;
4521;SDS011;2273;48.464;11.926;2023-06-22T06:01:23;16.20;;;8.40;;
4521;SDS011;2273;48.464;11.926;2023-06-22T06:03:50;16.97;;;8.00;;
4521;SDS011;2273;48.464;11.926;2023-06-22T06:06:18;27.43;;;9.17;;
4521;SDS011;2273;48.464;11.926;2023-06-22T06:08:46;17.63;;;7.30;;
4521;SDS011;2273;48.464;11.926;2023-06-22T06:11:11;16.73;;;6.90;;
4521;SDS011;2273;48.464;11.926;2023-06-22T06:13:37;18.13;;;7.63;;
4521;SDS011;2273;48.464;11.926;2023-06-22T06:16:02;13.93;;;6.53;;
4521;SDS011;2273;48.464;11.926;2023-06-22T06:18:28;14.80;;;7.50;;
4521;SDS011;2273;48.464;11.926;2023-06-22T06:20:53;11.37;;;6.87;;
4521;SDS011;2273;48.464;11.926;2023-06-22T06:23:19;15.03;;;7.30;;
4521;SDS011;2273;48.464;11.926;2023-06-22T06:25:44;16.90;;;7.10;;
4521;SDS011;2273;48.464;11.926;2023-06-22T06:28:09;15.20;;;7.63;;
4521;SDS011;2273;48.464;11.926;2023-06-22T06:30:35;10.93;;;6.77;;
4521;SDS011;2273;48.464;11.926;2023-06-22T06:33:02;16.00;;;7.07;;
4521;SDS011;2273;48.464;11.926;2023-06-22T06:35:28;14.10;;;6.77;;
4521;SDS011;2273;48.464;11.926;2023-06-22T06:37:53;16.80;;;6.27;;
4521;SDS011;2273;48.464;11.926;2023-06-22T06:40:18;14.30;;;7.00;;
4521;SDS011;2273;48.464;11.926;2023-06-22T06:42:45;19.57;;;7.30;;
4521;SDS011;2273;48.464;11.926;2023-06-22T06:45:11;11.90;;;6.00;;
4521;SDS011;2273;48.464;11.926;2023-06-22T06:47:38;11.03;;;5.87;;
4521;SDS011;2273;48.464;11.926;2023-06-22T06:50:05;12.90;;;5.33;;
4521;SDS011;2273;48.464;11.926;2023-06-22T06:52:31;17.30;;;6.30;;
4521;SDS011;2273;48.464;11.926;2023-06-22T06:54:57;15.30;;;5.10;;
4521;SDS011;2273;48.464;11.926;2023-06-22T06:57:22;15.03;;;5.27;;
4521;SDS011;2273;48.464;11.926;2023-06-22T06:59:48;13.67;;;5.00;;
4521;SDS011;2273;48.464;11.926;2023-06-22T07:02:14;12.93;;;6.33;;
4521;SDS011;2273;48.464;11.926;2023-06-22T07:04:40;15.40;;;5.67;;
4521;SDS011;2273;48.464;11.926;2023-06-22T07:07:06;13.53;;;5.30;;
4521;SDS011;2273;48.464;11.926;2023-06-22T07:09:31;15.43;;;5.27;;
4521;SDS011;2273;48.464;11.926;2023-06-22T07:11:57;16.60;;;5.40;;
4521;SDS011;2273;48.464;11.926;2023-06-22T07:14:22;11.70;;;5.17;;
4521;SDS011;2273;48.464;11.926;2023-06-22T07:16:48;15.87;;;4.57;;
4521;SDS011;2273;48.464;11.926;2023-06-22T07:19:13;8.00;;;4.53;;
4521;SDS011;2273;48.464;11.926;2023-06-22T07:21:39;9.13;;;3.90;;
4521;SDS011;2273;48.464;11.926;2023-06-22T07:24:07;11.40;;;3.33;;
4521;SDS011;2273;48.464;11.926;2023-06-22T07:26:32;12.23;;;4.17;;
4521;SDS011;2273;48.464;11.926;2023-06-22T07:28:58;21.20;;;4.83;;
4521;SDS011;2273;48.464;11.926;2023-06-22T07:31:24;12.97;;;3.73;;
4521;SDS011;2273;48.464;11.926;2023-06-22T07:33:50;7.50;;;3.77;;
4521;SDS011;2273;48.464;11.926;2023-06-22T07:36:16;11.30;;;4.00;;
4521;SDS011;2273;48.464;11.926;2023-06-22T07:38:42;7.17;;;3.83;;
4521;SDS011;2273;48.464;11.926;2023-06-22T07:41:08;7.80;;;3.60;;
4521;SDS011;2273;48.464;11.926;2023-06-22T07:43:33;10.37;;;4.77;;
4521;SDS011;2273;48.464;11.926;2023-06-22T07:46:02;10.53;;;3.17;;
4521;SDS011;2273;48.464;11.926;2023-06-22T07:48:28;6.10;;;3.30;;
4521;SDS011;2273;48.464;11.926;2023-06-22T07:50:53;8.33;;;3.97;;
4521;SDS011;2273;48.464;11.926;2023-06-22T07:53:20;8.23;;;4.27;;
4521;SDS011;2273;48.464;11.926;2023-06-22T07:55:46;8.70;;;3.90;;
4521;SDS011;2273;48.464;11.926;2023-06-22T07:58:11;10.23;;;3.67;;
4521;SDS011;2273;48.464;11.926;2023-06-22T08:00:37;8.83;;;4.00;;
4521;SDS011;2273;48.464;11.926;2023-06-22T08:03:02;9.93;;;4.33;;
4521;SDS011;2273;48.464;11.926;2023-06-22T08:05:30;10.93;;;4.23;;
4521;SDS011;2273;48.464;11.926;2023-06-22T08:07:56;9.50;;;4.50;;
4521;SDS011;2273;48.464;11.926;2023-06-22T08:10:21;6.37;;;3.30;;
4521;SDS011;2273;48.464;11.926;2023-06-22T08:12:46;9.50;;;3.50;;
4521;SDS011;2273;48.464;11.926;2023-06-22T08:15:12;10.27;;;4.20;;
4521;SDS011;2273;48.464;11.926;2023-06-22T08:17:37;12.70;;;3.80;;
4521;SDS011;2273;48.464;11.926;2023-06-22T08:20:04;11.73;;;4.47;;
4521;SDS011;2273;48.464;11.926;2023-06-22T08:22:42;9.17;;;3.87;;
4521;SDS011;2273;48.464;11.926;2023-06-22T08:25:08;8.33;;;4.00;;
4521;SDS011;2273;48.464;11.926;2023-06-22T08:27:34;10.73;;;4.37;;
4521;SDS011;2273;48.464;11.926;2023-06-22T08:30:00;10.00;;;4.23;;
4521;SDS011;2273;48.464;11.926;2023-06-22T08:32:29;12.90;;;4.23;;
4521;SDS011;2273;48.464;11.926;2023-06-22T08:34:55;8.63;;;3.87;;
4521;SDS011;2273;48.464;11.926;2023-06-22T08:37:21;8.40;;;4.40;;
4521;SDS011;2273;48.464;11.926;2023-06-22T08:39:48;8.30;;;4.20;;
4521;SDS011;2273;48.464;11.926;2023-06-22T08:42:14;14.23;;;4.30;;
4521;SDS011;2273;48.464;11.926;2023-06-22T08:44:40;9.73;;;3.90;;
4521;SDS011;2273;48.464;11.926;2023-06-22T08:47:05;12.80;;;4.60;;
4521;SDS011;2273;48.464;11.926;2023-06-22T08:49:31;8.50;;;3.63;;
4521;SDS011;2273;48.464;11.926;2023-06-22T08:51:56;8.63;;;4.00;;
4521;SDS011;2273;48.464;11.926;2023-06-22T08:54:22;10.20;;;3.73;;
4521;SDS011;2273;48.464;11.926;2023-06-22T08:56:47;9.63;;;3.83;;
4521;SDS011;2273;48.464;11.926;2023-06-22T08:59:13;17.37;;;4.27;;
4521;SDS011;2273;48.464;11.926;2023-06-22T09:01:38;10.60;;;4.60;;
4521;SDS011;2273;48.464;11.926;2023-06-22T09:04:04;14.60;;;4.27;;
4521;SDS011;2273;48.464;11.926;2023-06-22T09:06:31;10.00;;;4.10;;
4521;SDS011;2273;48.464;11.926;2023-06-22T09:08:56;7.10;;;3.93;;
4521;SDS011;2273;48.464;11.926;2023-06-22T09:11:24;11.50;;;4.50;;
4521;SDS011;2273;48.464;11.926;2023-06-22T09:13:50;9.47;;;4.60;;
4521;SDS011;2273;48.464;11.926;2023-06-22T09:16:17;12.53;;;4.63;;
4521;SDS011;2273;48.464;11.926;2023-06-22T09:18:42;9.77;;;3.70;;
4521;SDS011;2273;48.464;11.926;2023-06-22T09:21:10;15.90;;;4.60;;
4521;SDS011;2273;48.464;11.926;2023-06-22T09:23:36;11.30;;;4.37;;
4521;SDS011;2273;48.464;11.926;2023-06-22T09:26:01;16.20;;;5.20;;
4521;SDS011;2273;48.464;11.926;2023-06-22T09:28:27;12.97;;;4.07;;
4521;SDS011;2273;48.464;11.926;2023-06-22T09:30:52;16.10;;;4.10;;
4521;SDS011;2273;48.464;11.926;2023-06-22T09:33:23;14.63;;;5.00;;
4521;SDS011;2273;48.464;11.926;2023-06-22T09:35:49;17.50;;;5.03;;
4521;SDS011;2273;48.464;11.926;2023-06-22T09:38:16;13.43;;;4.67;;
4521;SDS011;2273;48.464;11.926;2023-06-22T09:40:41;16.47;;;4.67;;
4521;SDS011;2273;48.464;11.926;2023-06-22T09:43:07;10.70;;;4.37;;
4521;SDS011;2273;48.464;11.926;2023-06-22T09:45:32;16.27;;;5.70;;
4521;SDS011;2273;48.464;11.926;2023-06-22T09:47:58;17.37;;;4.33;;
4521;SDS011;2273;48.464;11.926;2023-06-22T09:50:23;66.07;;;10.53;;
4521;SDS011;2273;48.464;11.926;2023-06-22T09:52:49;26.17;;;5.93;;
4521;SDS011;2273;48.464;11.926;2023-06-22T09:55:19;14.23;;;4.63;;
4521;SDS011;2273;48.464;11.926;2023-06-22T09:57:45;12.00;;;4.50;;
4521;SDS011;2273;48.464;11.926;2023-06-22T10:00:11;16.43;;;4.30;;
4521;SDS011;2273;48.464;11.926;2023-06-22T10:02:38;8.97;;;3.80;;
4521;SDS011;2273;48.464;11.926;2023-06-22T10:05:04;21.43;;;4.33;;
4521;SDS011;2273;48.464;11.926;2023-06-22T10:07:30;15.43;;;5.07;;
4521;SDS011;2273;48.464;11.926;2023-06-22T10:09:55;5.73;;;4.00;;
4521;SDS011;2273;48.464;11.926;2023-06-22T10:12:21;10.00;;;3.80;;
4521;SDS011;2273;48.464;11.926;2023-06-22T10:14:46;9.47;;;3.90;;
4521;SDS011;2273;48.464;11.926;2023-06-22T10:17:12;13.00;;;4.30;;
4521;SDS011;2273;48.464;11.926;2023-06-22T10:19:37;11.30;;;4.80;;
4521;SDS011;2273;48.464;11.926;2023-06-22T10:22:04;10.67;;;3.70;;
4521;SDS011;2273;48.464;11.926;2023-06-22T10:24:30;12.63;;;4.00;;
4521;SDS011;2273;48.464;11.926;2023-06-22T10:26:55;13.90;;;4.73;;
4521;SDS011;2273;48.464;11.926;2023-06-22T10:29:21;12.87;;;4.50;;
4521;SDS011;2273;48.464;11.926;2023-06-22T10:31:46;12.53;;;4.20;;
4521;SDS011;2273;48.464;11.926;2023-06-22T10:34:12;12.17;;;4.00;;
4521;SDS011;2273;48.464;11.926;2023-06-22T10:36:37;11.70;;;4.13;;
4521;SDS011;2273;48.464;11.926;2023-06-22T10:39:03;15.27;;;3.83;;
4521;SDS011;2273;48.464;11.926;2023-06-22T10:41:29;12.77;;;4.13;;
4521;SDS011;2273;48.464;11.926;2023-06-22T10:43:55;15.83;;;3.83;;
4521;SDS011;2273;48.464;11.926;2023-06-22T10:46:20;8.50;;;4.17;;
4521;SDS011;2273;48.464;11.926;2023-06-22T10:48:46;12.40;;;4.63;;
4521;SDS011;2273;48.464;11.926;2023-06-22T10:51:11;12.53;;;4.33;;
4521;SDS011;2273;48.464;11.926;2023-06-22T10:53:37;8.37;;;4.07;;
4521;SDS011;2273;48.464;11.926;2023-06-22T10:56:02;9.40;;;4.23;;
4521;SDS011;2273;48.464;11.926;2023-06-22T10:58:28;17.20;;;4.97;;
4521;SDS011;2273;48.464;11.926;2023-06-22T11:00:53;11.03;;;4.30;;
4521;SDS011;2273;48.464;11.926;2023-06-22T11:03:18;13.37;;;4.47;;
4521;SDS011;2273;48.464;11.926;2023-06-22T11:05:44;8.97;;;4.20;;
4521;SDS011;2273;48.464;11.926;2023-06-22T11:08:09;13.60;;;4.67;;
4521;SDS011;2273;48.464;11.926;2023-06-22T11:10:35;13.47;;;3.90;;
4521;SDS011;2273;48.464;11.926;2023-06-22T11:13:00;11.57;;;4.10;;
4521;SDS011;2273;48.464;11.926;2023-06-22T11:15:27;12.97;;;4.90;;
4521;SDS011;2273;48.464;11.926;2023-06-22T11:17:53;17.23;;;5.40;;
4521;SDS011;2273;48.464;11.926;2023-06-22T11:20:18;15.80;;;5.23;;
4521;SDS011;2273;48.464;11.926;2023-06-22T11:22:43;16.07;;;3.67;;
4521;SDS011;2273;48.464;11.926;2023-06-22T11:25:09;14.20;;;3.97;;
4521;SDS011;2273;48.464;11.926;2023-06-22T11:27:36;9.20;;;4.37;;
4521;SDS011;2273;48.464;11.926;2023-06-22T11:30:01;10.73;;;4.00;;
4521;SDS011;2273;48.464;11.926;2023-06-22T11:32:27;12.17;;;4.60;;
4521;SDS011;2273;48.464;11.926;2023-06-22T11:34:53;7.70;;;3.70;;
4521;SDS011;2273;48.464;11.926;2023-06-22T11:37:18;10.43;;;4.07;;
4521;SDS011;2273;48.464;11.926;2023-06-22T11:39:43;19.13;;;3.90;;
4521;SDS011;2273;48.464;11.926;2023-06-22T11:42:09;17.13;;;3.63;;
4521;SDS011;2273;48.464;11.926;2023-06-22T11:44:35;11.07;;;3.97;;
4521;SDS011;2273;48.464;11.926;2023-06-22T11:47:00;16.60;;;3.87;;
4521;SDS011;2273;48.464;11.926;2023-06-22T11:49:28;12.93;;;4.27;;
4521;SDS011;2273;48.464;11.926;2023-06-22T11:51:54;13.30;;;4.67;;
4521;SDS011;2273;48.464;11.926;2023-06-22T11:54:19;11.67;;;4.20;;
4521;SDS011;2273;48.464;11.926;2023-06-22T11:56:44;19.37;;;4.50;;
4521;SDS011;2273;48.464;11.926;2023-06-22T11:59:10;15.30;;;4.20;;
4521;SDS011;2273;48.464;11.926;2023-06-22T12:01:35;15.07;;;4.47;;
4521;SDS011;2273;48.464;11.926;2023-06-22T12:04:01;18.50;;;4.30;;
4521;SDS011;2273;48.464;11.926;2023-06-22T12:06:26;10.10;;;4.00;;
4521;SDS011;2273;48.464;11.926;2023-06-22T12:08:52;16.33;;;4.93;;
4521;SDS011;2273;48.464;11.926;2023-06-22T12:11:17;13.60;;;4.67;;
4521;SDS011;2273;48.464;11.926;2023-06-22T12:13:42;10.90;;;4.10;;
4521;SDS011;2273;48.464;11.926;2023-06-22T12:16:08;14.63;;;4.20;;
4521;SDS011;2273;48.464;11.926;2023-06-22T12:18:33;21.00;;;4.20;;
4521;SDS011;2273;48.464;11.926;2023-06-22T12:20:59;11.47;;;4.43;;
4521;SDS011;2273;48.464;11.926;2023-06-22T12:23:24;13.93;;;4.03;;
4521;SDS011;2273;48.464;11.926;2023-06-22T12:25:50;14.93;;;5.57;;
4521;SDS011;2273;48.464;11.926;2023-06-22T12:28:15;11.50;;;4.60;;
4521;SDS011;2273;48.464;11.926;2023-06-22T12:30:41;15.20;;;4.07;;
4521;SDS011;2273;48.464;11.926;2023-06-22T12:33:06;11.33;;;3.87;;
4521;SDS011;2273;48.464;11.926;2023-06-22T12:35:31;8.70;;;4.47;;
4521;SDS011;2273;48.464;11.926;2023-06-22T12:37:57;9.10;;;4.40;;
4521;SDS011;2273;48.464;11.926;2023-06-22T12:40:22;7.30;;;3.57;;
4521;SDS011;2273;48.464;11.926;2023-06-22T12:42:48;11.63;;;4.30;;
4521;SDS011;2273;48.464;11.926;2023-06-22T12:45:14;18.97;;;4.53;;
4521;SDS011;2273;48.464;11.926;2023-06-22T12:47:40;19.07;;;4.30;;
4521;SDS011;2273;48.464;11.926;2023-06-22T12:50:05;15.47;;;4.30;;
4521;SDS011;2273;48.464;11.926;2023-06-22T12:52:31;14.33;;;4.63;;
4521;SDS011;2273;48.464;11.926;2023-06-22T12:54:59;17.23;;;4.50;;
4521;SDS011;2273;48.464;11.926;2023-06-22T12:57:25;13.67;;;4.17;;
4521;SDS011;2273;48.464;11.926;2023-06-22T12:59:50;23.17;;;4.50;;
4521;SDS011;2273;48.464;11.926;2023-06-22T13:02:16;13.83;;;4.60;;
4521;SDS011;2273;48.464;11.926;2023-06-22T13:04:41;16.40;;;4.40;;
4521;SDS011;2273;48.464;11.926;2023-06-22T13:07:08;10.10;;;3.93;;
4521;SDS011;2273;48.464;11.926;2023-06-22T13:09:33;14.40;;;4.37;;
4521;SDS011;2273;48.464;11.926;2023-06-22T13:12:01;13.57;;;4.30;;
4521;SDS011;2273;48.464;11.926;2023-06-22T13:14:26;14.57;;;4.93;;
4521;SDS011;2273;48.464;11.926;2023-06-22T13:16:52;13.67;;;4.13;;
4521;SDS011;2273;48.464;11.926;2023-06-22T13:19:17;18.30;;;4.70;;
4521;SDS011;2273;48.464;11.926;2023-06-22T13:21:42;15.50;;;4.10;;
4521;SDS011;2273;48.464;11.926;2023-06-22T13:24:08;12.93;;;3.90;;
4521;SDS011;2273;48.464;11.926;2023-06-22T13:26:33;21.83;;;4.60;;
4521;SDS011;2273;48.464;11.926;2023-06-22T13:28:59;15.63;;;5.07;;
4521;SDS011;2273;48.464;11.926;2023-06-22T13:31:24;11.83;;;4.10;;
4521;SDS011;2273;48.464;11.926;2023-06-22T13:33:50;12.20;;;3.77;;
4521;SDS011;2273;48.464;11.926;2023-06-22T13:36:17;15.13;;;4.67;;
4521;SDS011;2273;48.464;11.926;2023-06-22T13:38:43;10.67;;;4.33;;
4521;SDS011;2273;48.464;11.926;2023-06-22T13:41:08;17.23;;;5.43;;
4521;SDS011;2273;48.464;11.926;2023-06-22T13:43:33;18.73;;;4.47;;
4521;SDS011;2273;48.464;11.926;2023-06-22T13:45:59;11.80;;;4.10;;
4521;SDS011;2273;48.464;11.926;2023-06-22T13:48:24;15.00;;;4.60;;
4521;SDS011;2273;48.464;11.926;2023-06-22T13:50:51;11.67;;;4.20;;
4521;SDS011;2273;48.464;11.926;2023-06-22T13:53:17;18.00;;;4.73;;
4521;SDS011;2273;48.464;11.926;2023-06-22T13:55:42;14.07;;;4.70;;
4521;SDS011;2273;48.464;11.926;2023-06-22T13:58:07;18.07;;;4.40;;
4521;SDS011;2273;48.464;11.926;2023-06-22T14:00:33;17.33;;;4.40;;
4521;SDS011;2273;48.464;11.926;2023-06-22T14:02:58;9.33;;;4.10;;
4521;SDS011;2273;48.464;11.926;2023-06-22T14:05:24;11.60;;;4.20;;
4521;SDS011;2273;48.464;11.926;2023-06-22T14:07:49;12.70;;;4.97;;
4521;SDS011;2273;48.464;11.926;2023-06-22T14:10:14;12.43;;;4.17;;
4521;SDS011;2273;48.464;11.926;2023-06-22T14:12:40;14.33;;;4.67;;
4521;SDS011;2273;48.464;11.926;2023-06-22T14:15:05;13.70;;;4.33;;
4521;SDS011;2273;48.464;11.926;2023-06-22T14:17:31;19.10;;;4.67;;
4521;SDS011;2273;48.464;11.926;2023-06-22T14:19:57;13.83;;;4.87;;
4521;SDS011;2273;48.464;11.926;2023-06-22T14:22:22;14.17;;;4.50;;
4521;SDS011;2273;48.464;11.926;2023-06-22T14:24:48;12.60;;;4.33;;
4521;SDS011;2273;48.464;11.926;2023-06-22T14:27:14;15.73;;;4.70;;
4521;SDS011;2273;48.464;11.926;2023-06-22T14:29:39;13.83;;;4.10;;
4521;SDS011;2273;48.464;11.926;2023-06-22T14:32:05;14.13;;;5.30;;
4521;SDS011;2273;48.464;11.926;2023-06-22T14:34:31;13.57;;;4.07;;
4521;SDS011;2273;48.464;11.926;2023-06-22T14:36:58;20.10;;;4.53;;
4521;SDS011;2273;48.464;11.926;2023-06-22T14:39:23;15.63;;;4.20;;
4521;SDS011;2273;48.464;11.926;2023-06-22T14:41:49;17.10;;;4.43;;
4521;SDS011;2273;48.464;11.926;2023-06-22T14:44:14;14.93;;;4.03;;
4521;SDS011;2273;48.464;11.926;2023-06-22T14:46:40;16.87;;;4.60;;
4521;SDS011;2273;48.464;11.926;2023-06-22T14:49:05;21.73;;;5.83;;
4521;SDS011;2273;48.464;11.926;2023-06-22T14:51:31;20.27;;;4.30;;